Robeline, Louisiana
Current Conditions -  °F | °C
As of 12:55 PM on Monday 20 Oct 2014 (Local Time) from KIER Reporting Station
Clear Clear  
Wind Chill: 75°   Ceiling: Unl
Heat Index: 75°   Visibility: 10mi
Dew Point: 55°   Wind: 6mph
Humidity: 49%   Direction: 300°WNW
Pressure: 30.08"   Gusts: NA
Location:  31.69°N, 93.3°W
Report Text: KIER 201755Z AUTO 30005KT 10SM CLR 24/13 A3008 RMK AO2 T02400127 10240 20083
Loading
Personal Weather Stations






























Interactive Weather Map
Tropical Storm Tracking
New forecast layout! Learn more

10-Day Weather Forecast

Advertisements
Track Severe Weather on mobile